Time;durP1;ratioP1;P1;durP2;ratioP2;P2;SDS_P1;SDS_P2;PMS_P1;PMS_P2;Temp;Humidity;BMP_temperature;BMP_pressure;BME280_temperature;BME280_humidity;BME280_pressure;Samples;Min_cycle;Max_cycle;Signal;HPM_P1;HPM_P2
2021/08/21 00:01:29;;;;;;;15.80;9.18;;;25.10;51.10;;;;;;4250536;28;20468;-56
2021/08/21 00:03:32;;;;;;;18.50;8.93;;;25.10;51.00;;;;;;4250334;28;20078;-55
2021/08/21 00:05:34;;;;;;;11.77;8.75;;;25.20;51.10;;;;;;4250682;28;20048;-55
2021/08/21 00:07:37;;;;;;;15.60;8.57;;;25.10;51.10;;;;;;4250650;28;20072;-55
2021/08/21 00:09:39;;;;;;;13.43;8.70;;;25.10;51.00;;;;;;4250704;28;20044;-55
2021/08/21 00:11:41;;;;;;;15.25;9.20;;;25.10;51.10;;;;;;4250763;28;20069;-56
2021/08/21 00:13:43;;;;;;;12.60;8.18;;;25.10;51.10;;;;;;4250635;28;20044;-56
2021/08/21 00:15:46;;;;;;;19.75;9.20;;;25.10;51.00;;;;;;4250470;28;20103;-56
2021/08/21 00:17:48;;;;;;;13.93;7.30;;;25.10;51.10;;;;;;4250503;28;20112;-56
2021/08/21 00:19:51;;;;;;;13.07;7.45;;;25.10;51.10;;;;;;4232757;28;20051;-55
2021/08/21 00:21:53;;;;;;;19.13;9.05;;;25.10;51.10;;;;;;4250492;28;20050;-54
2021/08/21 00:23:55;;;;;;;14.27;8.15;;;25.10;51.20;;;;;;4250207;28;20072;-55
2021/08/21 00:25:57;;;;;;;12.50;8.10;;;25.10;51.20;;;;;;4232288;28;20097;-55
2021/08/21 00:27:59;;;;;;;15.43;7.93;;;25.10;51.20;;;;;;4249146;28;20048;-56
2021/08/21 00:30:02;;;;;;;14.30;8.50;;;25.10;51.20;;;;;;4250295;28;20048;-56
2021/08/21 00:32:05;;;;;;;13.77;8.05;;;25.10;51.10;;;;;;4250432;28;20051;-56
2021/08/21 00:34:07;;;;;;;13.60;7.43;;;25.00;51.10;;;;;;4250222;28;20047;-52
2021/08/21 00:36:09;;;;;;;13.15;7.85;;;25.10;51.20;;;;;;4250350;28;20047;-54
2021/08/21 00:38:10;;;;;;;17.27;8.23;;;25.00;51.10;;;;;;4232663;28;20044;-56
2021/08/21 00:40:13;;;;;;;15.55;7.72;;;25.00;51.10;;;;;;4250448;28;20051;-51
2021/08/21 00:42:15;;;;;;;12.13;7.72;;;25.00;51.20;;;;;;4250205;28;20082;-55
2021/08/21 00:44:17;;;;;;;17.48;8.88;;;25.00;51.10;;;;;;4250127;28;20051;-53
2021/08/21 00:46:19;;;;;;;12.98;7.95;;;25.00;51.10;;;;;;4250014;28;20095;-55
2021/08/21 00:48:21;;;;;;;12.73;7.70;;;25.00;51.10;;;;;;4232520;28;20040;-54
2021/08/21 00:50:23;;;;;;;19.00;7.95;;;25.00;51.10;;;;;;4249815;28;20043;-53
2021/08/21 00:52:28;;;;;;;20.75;9.02;;;25.00;51.10;;;;;;4250417;28;20072;-55
2021/08/21 00:54:29;;;;;;;14.88;8.32;;;25.00;51.10;;;;;;4233626;28;20078;-56
2021/08/21 00:56:31;;;;;;;17.15;7.88;;;25.00;51.10;;;;;;4233333;28;20069;-52
2021/08/21 00:58:34;;;;;;;12.68;7.72;;;25.00;51.20;;;;;;4233400;28;20058;-52
2021/08/21 01:00:36;;;;;;;11.95;8.45;;;25.00;51.10;;;;;;4233191;28;20052;-52
2021/08/21 01:02:39;;;;;;;15.80;8.98;;;25.00;51.10;;;;;;4233629;28;20048;-55
2021/08/21 01:04:51;;;;;;;13.90;8.27;;;25.00;51.10;;;;;;4249982;28;20086;-54
2021/08/21 01:06:53;;;;;;;14.48;8.95;;;25.00;51.10;;;;;;4250134;28;20039;-55
2021/08/21 01:08:55;;;;;;;13.38;8.45;;;25.00;51.00;;;;;;4250206;28;20043;-52
2021/08/21 01:10:57;;;;;;;17.45;9.52;;;25.00;51.00;;;;;;4250123;28;20048;-52
2021/08/21 01:13:00;;;;;;;13.95;9.05;;;25.00;51.00;;;;;;4249974;28;20052;-53
2021/08/21 01:15:04;;;;;;;13.15;9.23;;;25.00;51.00;;;;;;4232333;28;20077;-55
2021/08/21 01:17:07;;;;;;;18.75;8.95;;;25.00;51.00;;;;;;4249971;28;20047;-52
2021/08/21 01:19:09;;;;;;;14.98;8.55;;;25.00;50.90;;;;;;4249967;28;20069;-53
2021/08/21 01:21:12;;;;;;;16.23;9.20;;;25.00;50.90;;;;;;4249636;28;20415;-56
2021/08/21 01:23:14;;;;;;;15.90;9.32;;;25.00;50.90;;;;;;4249340;28;20048;-53
2021/08/21 01:25:21;;;;;;;15.43;8.70;;;25.00;50.90;;;;;;4249551;28;20044;-54
2021/08/21 01:27:27;;;;;;;19.92;9.18;;;25.00;50.90;;;;;;4249570;28;20067;-55
2021/08/21 01:29:29;;;;;;;18.15;10.70;;;25.00;50.90;;;;;;4249658;28;20036;-52
2021/08/21 01:31:31;;;;;;;11.57;8.65;;;25.00;50.90;;;;;;4249590;28;20111;-51
2021/08/21 01:33:35;;;;;;;13.52;8.98;;;25.00;50.90;;;;;;4249460;28;20104;-50
2021/08/21 01:35:37;;;;;;;10.95;8.77;;;25.00;50.90;;;;;;4249730;28;20047;-52
2021/08/21 01:37:39;;;;;;;15.32;9.65;;;25.00;50.90;;;;;;4249520;28;20073;-53
2021/08/21 01:39:41;;;;;;;12.68;8.65;;;25.00;50.80;;;;;;4249504;28;20052;-51
2021/08/21 01:41:43;;;;;;;13.05;9.50;;;24.90;50.80;;;;;;4249718;28;20102;-53
2021/08/21 01:43:45;;;;;;;16.45;10.45;;;24.90;50.80;;;;;;4249566;28;20075;-50
2021/08/21 01:45:49;;;;;;;15.63;10.15;;;25.00;50.70;;;;;;4249502;28;20070;-54
2021/08/21 01:47:51;;;;;;;18.30;10.98;;;24.90;50.70;;;;;;4249446;28;20040;-55
2021/08/21 01:50:06;;;;;;;21.15;11.77;;;24.90;50.70;;;;;;4249469;28;20048;-52
2021/08/21 01:52:10;;;;;;;18.20;12.05;;;24.90;50.70;;;;;;4249483;28;20043;-54
2021/08/21 01:54:21;;;;;;;23.92;12.98;;;24.90;50.70;;;;;;4249297;28;20051;-55
2021/08/21 01:56:27;;;;;;;20.27;12.50;;;24.90;50.70;;;;;;4249360;28;20552;-56
2021/08/21 01:58:29;;;;;;;17.48;12.05;;;24.90;50.60;;;;;;4249417;28;20044;-53
2021/08/21 02:00:31;;;;;;;18.75;12.52;;;24.90;50.60;;;;;;4249333;28;20044;-54
2021/08/21 02:02:33;;;;;;;24.25;13.77;;;24.90;50.70;;;;;;4249282;28;20092;-55
2021/08/21 02:04:36;;;;;;;20.83;13.65;;;24.90;50.60;;;;;;4248911;28;20077;-56
2021/08/21 02:06:38;;;;;;;21.20;13.25;;;24.90;50.60;;;;;;4249275;28;20071;-54
2021/08/21 02:08:41;;;;;;;20.48;13.65;;;24.90;50.60;;;;;;4249055;28;20043;-53
2021/08/21 02:10:43;;;;;;;22.55;13.18;;;24.90;50.60;;;;;;4249357;28;20051;-55
2021/08/21 02:12:45;;;;;;;21.85;12.95;;;24.90;50.60;;;;;;4249175;28;20048;-55
2021/08/21 02:14:47;;;;;;;18.08;12.93;;;24.90;50.60;;;;;;4249155;28;20071;-53
2021/08/21 02:16:52;;;;;;;20.10;13.10;;;24.90;50.60;;;;;;4249031;28;20126;-53
2021/08/21 02:18:54;;;;;;;20.67;13.32;;;24.90;50.50;;;;;;4249126;28;20058;-56
2021/08/21 02:20:56;;;;;;;19.42;12.65;;;24.90;50.60;;;;;;4249074;28;20043;-55
2021/08/21 02:22:58;;;;;;;20.77;12.65;;;24.80;50.50;;;;;;4248975;28;20077;-53
2021/08/21 02:25:00;;;;;;;22.05;12.55;;;24.90;50.50;;;;;;4248618;28;20072;-53
2021/08/21 02:27:04;;;;;;;17.42;12.32;;;24.90;50.50;;;;;;4248733;28;20136;-54
2021/08/21 02:29:09;;;;;;;19.20;11.80;;;24.90;50.50;;;;;;4248088;28;20044;-53
2021/08/21 02:31:11;;;;;;;16.20;11.80;;;24.90;50.40;;;;;;4248823;28;20044;-52
2021/08/21 02:33:13;;;;;;;19.42;11.98;;;24.90;50.40;;;;;;4248596;28;20074;-52
2021/08/21 02:35:15;;;;;;;15.90;11.00;;;24.80;50.40;;;;;;4240438;28;20075;-51
2021/08/21 02:37:19;;;;;;;18.02;11.07;;;24.90;50.40;;;;;;4232900;28;20047;-52
2021/08/21 02:39:21;;;;;;;23.55;10.35;;;24.90;50.30;;;;;;4248684;28;20054;-52
2021/08/21 02:41:24;;;;;;;17.63;10.98;;;24.80;50.30;;;;;;4248578;28;20043;-55
2021/08/21 02:43:26;;;;;;;17.13;10.90;;;24.80;50.30;;;;;;4248373;28;20051;-55
2021/08/21 02:45:28;;;;;;;19.42;10.18;;;24.80;50.30;;;;;;4248599;28;20040;-54
2021/08/21 02:47:30;;;;;;;15.10;11.40;;;24.80;50.30;;;;;;4248630;28;20051;-54
2021/08/21 02:49:34;;;;;;;19.92;10.85;;;24.80;50.20;;;;;;4248562;28;20044;-52
2021/08/21 02:51:36;;;;;;;15.40;11.18;;;24.80;50.20;;;;;;4249390;28;20040;-49
2021/08/21 02:53:38;;;;;;;16.63;10.18;;;24.80;50.20;;;;;;4247573;28;20044;-50
2021/08/21 02:55:39;;;;;;;14.95;9.95;;;24.80;50.10;;;;;;4251719;28;20072;-53
2021/08/21 02:57:41;;;;;;;13.73;9.90;;;24.80;50.20;;;;;;4251732;28;20047;-49
2021/08/21 02:59:43;;;;;;;16.50;10.27;;;24.80;50.10;;;;;;4251833;28;20058;-48
2021/08/21 03:01:46;;;;;;;16.88;10.50;;;24.80;50.10;;;;;;4251421;28;20057;-52
2021/08/21 03:03:48;;;;;;;16.08;9.88;;;24.80;50.00;;;;;;4251452;28;20131;-53
2021/08/21 03:05:50;;;;;;;14.85;11.05;;;24.80;50.00;;;;;;4251483;28;20071;-51
2021/08/21 03:07:52;;;;;;;14.10;9.63;;;24.80;50.00;;;;;;4251526;28;20103;-52
2021/08/21 03:09:54;;;;;;;16.63;10.95;;;24.80;50.00;;;;;;4251637;28;20100;-54
2021/08/21 03:11:56;;;;;;;16.92;10.50;;;24.80;50.00;;;;;;4251406;28;20044;-52
2021/08/21 03:13:58;;;;;;;13.23;9.52;;;24.80;50.10;;;;;;4251237;28;20077;-53
2021/08/21 03:16:00;;;;;;;19.75;10.80;;;24.80;50.10;;;;;;4251155;28;20054;-52
2021/08/21 03:18:03;;;;;;;17.45;11.05;;;24.80;50.00;;;;;;4251431;28;20066;-54
2021/08/21 03:20:05;;;;;;;20.30;10.20;;;24.70;50.00;;;;;;4251439;28;20076;-55
2021/08/21 03:22:07;;;;;;;17.58;10.73;;;24.70;50.00;;;;;;4251469;28;20109;-48
2021/08/21 03:24:09;;;;;;;16.77;10.98;;;24.70;50.00;;;;;;4251332;28;20043;-50
2021/08/21 03:26:15;;;;;;;15.98;10.80;;;24.80;49.90;;;;;;4251374;28;20080;-54
2021/08/21 03:28:17;;;;;;;16.58;10.75;;;24.80;50.00;;;;;;4251373;28;20040;-49
2021/08/21 03:30:19;;;;;;;17.77;11.05;;;24.80;49.80;;;;;;4251305;28;20103;-49
2021/08/21 03:32:21;;;;;;;19.73;10.70;;;24.80;49.90;;;;;;4251228;28;20047;-51
2021/08/21 03:34:24;;;;;;;14.98;10.07;;;24.80;49.90;;;;;;4251332;28;20047;-49
2021/08/21 03:36:28;;;;;;;21.77;11.80;;;24.70;49.90;;;;;;4251254;28;20053;-51
2021/08/21 03:38:30;;;;;;;14.63;9.75;;;24.70;49.90;;;;;;4251331;28;20047;-49
2021/08/21 03:40:32;;;;;;;16.25;10.10;;;24.70;49.90;;;;;;4239759;28;20048;-51
2021/08/21 03:42:34;;;;;;;18.08;10.10;;;24.80;50.00;;;;;;4246242;28;20051;-52
2021/08/21 03:44:36;;;;;;;16.55;11.02;;;24.70;49.80;;;;;;4250980;28;20051;-55
2021/08/21 03:46:38;;;;;;;17.00;10.65;;;24.80;49.90;;;;;;4251151;28;20047;-51
2021/08/21 03:48:40;;;;;;;18.40;9.63;;;24.80;49.90;;;;;;4251059;28;20043;-54
2021/08/21 03:50:42;;;;;;;15.07;10.65;;;24.70;49.90;;;;;;4251122;28;20054;-51
2021/08/21 03:52:44;;;;;;;16.73;9.82;;;24.70;49.90;;;;;;4251065;28;20107;-52
2021/08/21 03:54:46;;;;;;;16.45;9.95;;;24.70;49.90;;;;;;4250071;28;20054;-53
2021/08/21 03:56:48;;;;;;;18.45;10.95;;;24.70;49.90;;;;;;4250898;28;20043;-55
2021/08/21 03:58:55;;;;;;;16.88;10.25;;;24.70;49.90;;;;;;4250724;28;20078;-54
2021/08/21 04:00:56;;;;;;;15.95;9.05;;;24.70;50.00;;;;;;4249898;28;20504;-53
2021/08/21 04:02:59;;;;;;;13.40;8.93;;;24.70;50.00;;;;;;4250592;28;20066;-53
2021/08/21 04:05:01;;;;;;;17.13;9.55;;;24.70;50.00;;;;;;4250533;28;20051;-54
2021/08/21 04:07:03;;;;;;;16.52;10.80;;;24.70;50.00;;;;;;4250795;28;20039;-56
2021/08/21 04:09:05;;;;;;;18.55;9.98;;;24.70;49.90;;;;;;4250013;28;20077;-54
2021/08/21 04:11:07;;;;;;;18.50;9.85;;;24.70;50.00;;;;;;4241824;28;20040;-54
2021/08/21 04:13:09;;;;;;;13.00;9.25;;;24.70;50.00;;;;;;4246921;28;20074;-54
2021/08/21 04:15:11;;;;;;;18.98;10.35;;;24.80;50.00;;;;;;4250573;28;20047;-50
2021/08/21 04:17:13;;;;;;;13.65;9.35;;;24.70;50.00;;;;;;4250561;28;20123;-53
2021/08/21 04:19:15;;;;;;;12.93;9.63;;;24.70;49.90;;;;;;4250613;28;20066;-53
2021/08/21 04:21:17;;;;;;;13.18;8.95;;;24.80;49.90;;;;;;4250121;28;20059;-54
2021/08/21 04:23:19;;;;;;;14.43;9.30;;;24.80;50.00;;;;;;4233322;28;20048;-55
2021/08/21 04:25:21;;;;;;;18.80;9.82;;;24.70;50.00;;;;;;4238159;28;20134;-54
2021/08/21 04:27:24;;;;;;;16.33;9.43;;;24.70;50.10;;;;;;4250326;28;20044;-52
2021/08/21 04:29:26;;;;;;;17.88;10.25;;;24.70;50.20;;;;;;4249951;28;20052;-53
2021/08/21 04:31:28;;;;;;;15.05;9.02;;;24.70;50.20;;;;;;4250287;28;20044;-50
2021/08/21 04:33:31;;;;;;;16.65;9.38;;;24.70;50.20;;;;;;4249974;28;20476;-55
2021/08/21 04:35:33;;;;;;;15.30;8.98;;;24.70;50.30;;;;;;4249917;28;20082;-52
2021/08/21 04:37:35;;;;;;;14.85;9.30;;;24.70;50.20;;;;;;4249911;28;20102;-55
2021/08/21 04:39:37;;;;;;;16.00;8.63;;;24.70;50.20;;;;;;4248467;28;20050;-53
2021/08/21 04:41:39;;;;;;;23.20;9.68;;;24.70;50.30;;;;;;4236549;28;20048;-50
2021/08/21 04:43:41;;;;;;;16.42;9.32;;;24.70;50.30;;;;;;4233104;28;20549;-56
2021/08/21 04:45:43;;;;;;;17.88;9.52;;;24.80;50.40;;;;;;4232672;28;20105;-56
2021/08/21 04:47:45;;;;;;;13.63;9.05;;;24.70;50.30;;;;;;4232885;28;20535;-54
2021/08/21 04:49:48;;;;;;;16.10;9.30;;;24.70;50.40;;;;;;4244191;28;20057;-54
2021/08/21 04:51:50;;;;;;;16.52;9.02;;;24.70;50.60;;;;;;4249767;28;20044;-50
2021/08/21 04:53:51;;;;;;;13.85;8.57;;;24.70;50.40;;;;;;4249743;28;20044;-49
2021/08/21 04:55:53;;;;;;;12.55;8.60;;;24.70;50.40;;;;;;4249498;28;20047;-52
2021/08/21 04:57:56;;;;;;;17.48;8.60;;;24.70;50.40;;;;;;4249720;28;20077;-52
2021/08/21 04:59:58;;;;;;;16.33;8.43;;;24.70;50.50;;;;;;4249288;28;20052;-54
2021/08/21 05:02:00;;;;;;;16.13;8.65;;;24.70;50.40;;;;;;4249320;28;20050;-53
2021/08/21 05:04:02;;;;;;;16.05;9.05;;;24.70;50.40;;;;;;4249395;28;20087;-51
2021/08/21 05:06:04;;;;;;;12.75;9.98;;;24.70;50.50;;;;;;4249277;28;20043;-54
2021/08/21 05:08:06;;;;;;;13.63;9.38;;;24.70;50.50;;;;;;4249207;28;20048;-52
2021/08/21 05:10:08;;;;;;;17.15;9.95;;;24.70;50.60;;;;;;4242332;28;20147;-51
2021/08/21 05:12:10;;;;;;;16.58;9.20;;;24.70;50.50;;;;;;4248748;28;20120;-51
2021/08/21 05:14:12;;;;;;;13.95;8.75;;;24.70;50.50;;;;;;4248624;28;20054;-53
2021/08/21 05:16:14;;;;;;;13.30;9.38;;;24.70;50.50;;;;;;4231716;28;20055;-53
2021/08/21 05:18:24;;;;;;;17.83;9.23;;;24.70;50.40;;;;;;4249033;28;20051;-48
2021/08/21 05:20:29;;;;;;;16.23;9.68;;;24.60;51.20;;;;;;4249221;28;20073;-50
2021/08/21 05:23:31;;;;;;;14.20;8.65;;;24.50;51.30;;;;;;4249757;28;20047;-58
2021/08/21 05:25:02;;;;;;;16.83;10.40;;;24.40;52.00;;;;;;4236597;28;20040;-58
2021/08/21 05:27:05;;;;;;;15.85;11.02;;;24.50;52.30;;;;;;4249652;28;20076;-58
2021/08/21 05:29:07;;;;;;;18.10;11.18;;;24.60;52.40;;;;;;4249768;28;20047;-58
2021/08/21 05:31:09;;;;;;;19.73;10.45;;;24.50;52.50;;;;;;4249773;28;20039;-58
2021/08/21 05:33:16;;;;;;;15.75;10.48;;;24.50;52.60;;;;;;4249701;28;20068;-58
2021/08/21 05:35:21;;;;;;;18.23;9.13;;;24.50;52.40;;;;;;4249763;28;20069;-58
2021/08/21 05:37:23;;;;;;;15.57;9.18;;;24.50;52.20;;;;;;4249348;28;20047;-58
2021/08/21 05:39:25;;;;;;;17.05;10.27;;;24.60;52.00;;;;;;4249284;28;20046;-59
2021/08/21 05:41:27;;;;;;;15.85;9.85;;;24.60;52.30;;;;;;4249611;28;20111;-58
2021/08/21 05:43:29;;;;;;;21.50;10.73;;;24.50;52.60;;;;;;4249319;28;20039;-59
2021/08/21 05:45:31;;;;;;;16.95;8.75;;;24.40;52.90;;;;;;4249351;28;20070;-59
2021/08/21 05:47:33;;;;;;;19.05;9.63;;;24.40;53.00;;;;;;4249436;28;20043;-58
2021/08/21 05:49:35;;;;;;;11.35;9.20;;;24.40;53.20;;;;;;4249395;28;20103;-58
2021/08/21 05:51:37;;;;;;;16.90;9.77;;;24.40;52.90;;;;;;4249613;28;20149;-58
2021/08/21 05:53:39;;;;;;;20.60;10.18;;;24.40;52.80;;;;;;4249318;28;20048;-59
2021/08/21 05:55:41;;;;;;;20.77;9.98;;;24.40;53.10;;;;;;4249342;28;20130;-58
2021/08/21 05:57:43;;;;;;;17.08;10.45;;;24.40;53.20;;;;;;4249241;28;20070;-59
2021/08/21 05:59:45;;;;;;;17.20;9.98;;;24.30;53.10;;;;;;4249002;28;20047;-59
2021/08/21 06:01:47;;;;;;;24.13;9.57;;;24.20;53.50;;;;;;4249186;28;20074;-58
2021/08/21 06:03:51;;;;;;;19.65;9.77;;;24.30;53.60;;;;;;4249057;28;20059;-58
2021/08/21 06:05:53;;;;;;;31.17;11.27;;;24.30;53.30;;;;;;4248878;28;20050;-59
2021/08/21 06:07:55;;;;;;;17.35;9.38;;;24.30;53.60;;;;;;4248879;28;20048;-58
2021/08/21 06:09:57;;;;;;;21.80;9.48;;;24.40;53.80;;;;;;4248453;28;20039;-59
2021/08/21 06:11:59;;;;;;;24.20;9.88;;;24.30;54.00;;;;;;4249089;28;20073;-59
2021/08/21 06:14:01;;;;;;;20.35;9.75;;;24.40;53.60;;;;;;4249090;28;20050;-59
2021/08/21 06:16:04;;;;;;;15.52;8.35;;;24.50;53.40;;;;;;4249269;28;20058;-58
2021/08/21 06:18:06;;;;;;;24.13;9.73;;;24.50;53.30;;;;;;4249042;28;20043;-59
2021/08/21 06:20:08;;;;;;;21.38;9.15;;;24.50;53.20;;;;;;4249108;28;20044;-59
2021/08/21 06:22:10;;;;;;;13.18;8.88;;;24.50;53.50;;;;;;4249053;28;20047;-58
2021/08/21 06:24:12;;;;;;;20.90;9.20;;;24.50;53.30;;;;;;4249016;28;20049;-59
2021/08/21 06:26:14;;;;;;;30.33;11.65;;;24.50;53.40;;;;;;4251330;28;20047;-58
2021/08/21 06:28:16;;;;;;;42.70;15.50;;;24.40;53.80;;;;;;4252384;28;20044;-60
2021/08/21 06:30:18;;;;;;;38.92;14.95;;;24.40;53.70;;;;;;4252443;28;20043;-58
2021/08/21 06:32:20;;;;;;;33.90;13.15;;;24.50;53.70;;;;;;4252296;28;20069;-58
2021/08/21 06:34:22;;;;;;;39.75;14.45;;;24.50;53.50;;;;;;4252318;28;20043;-58
2021/08/21 06:36:24;;;;;;;37.17;14.30;;;24.50;53.40;;;;;;4234474;28;20048;-58
2021/08/21 06:38:26;;;;;;;40.72;16.38;;;24.50;53.30;;;;;;4252205;28;20050;-58
2021/08/21 06:40:28;;;;;;;107.00;33.97;;;24.50;53.20;;;;;;4252067;28;20052;-58
2021/08/21 06:42:36;;;;;;;107.38;35.72;;;24.50;55.20;;;;;;4252054;28;20073;-58
2021/08/21 06:44:38;;;;;;;83.90;26.63;;;24.50;55.70;;;;;;4251952;28;20058;-59
2021/08/21 06:46:40;;;;;;;67.97;22.70;;;24.40;55.50;;;;;;4251974;28;20069;-58
2021/08/21 06:48:42;;;;;;;43.60;16.67;;;24.30;54.80;;;;;;4251665;28;20047;-58
2021/08/21 06:50:44;;;;;;;59.92;18.55;;;24.40;54.40;;;;;;4251847;28;20044;-58
2021/08/21 06:52:46;;;;;;;58.72;31.00;;;24.40;54.80;;;;;;4247708;28;20044;-62
2021/08/21 06:54:48;;;;;;;39.20;20.27;;;24.40;53.60;;;;;;4234471;28;20135;-62
2021/08/21 06:56:50;;;;;;;31.40;16.92;;;24.40;53.10;;;;;;4234929;28;20107;-61
2021/08/21 06:58:52;;;;;;;35.42;17.83;;;24.40;53.20;;;;;;4233791;28;20052;-63
2021/08/21 07:00:54;;;;;;;27.52;15.88;;;24.40;53.00;;;;;;4234068;28;20266;-62
2021/08/21 07:02:56;;;;;;;29.95;16.00;;;24.40;52.80;;;;;;4233824;28;20536;-62
2021/08/21 07:04:59;;;;;;;26.10;13.68;;;24.40;52.80;;;;;;4233440;28;20060;-63
2021/08/21 07:07:02;;;;;;;21.20;10.65;;;24.40;52.40;;;;;;4234508;28;20099;-57
2021/08/21 07:09:04;;;;;;;30.33;10.45;;;24.40;51.90;;;;;;4234859;28;20052;-59
2021/08/21 07:11:06;;;;;;;19.90;9.68;;;24.40;52.10;;;;;;4234624;28;20044;-58
2021/08/21 07:13:08;;;;;;;25.02;11.02;;;24.40;52.20;;;;;;4234213;28;20119;-62
2021/08/21 07:15:11;;;;;;;21.67;10.65;;;24.40;52.60;;;;;;4234080;28;20040;-58
2021/08/21 07:17:14;;;;;;;18.00;10.45;;;24.50;52.70;;;;;;4234106;28;20055;-58
2021/08/21 07:19:16;;;;;;;46.42;31.00;;;24.50;52.70;;;;;;4234119;28;20074;-58
2021/08/21 07:21:18;;;;;;;19.98;14.32;;;24.50;52.80;;;;;;4233994;28;20481;-58
2021/08/21 07:23:20;;;;;;;23.17;18.02;;;24.50;52.90;;;;;;4234093;28;20072;-58
2021/08/21 07:25:22;;;;;;;23.05;17.45;;;24.40;52.40;;;;;;4234387;28;20066;-58
2021/08/21 07:27:24;;;;;;;21.50;16.55;;;24.40;52.50;;;;;;4234165;28;20052;-58
2021/08/21 07:29:26;;;;;;;18.92;14.25;;;24.30;52.00;;;;;;4234025;28;20126;-58
2021/08/21 07:31:28;;;;;;;14.73;10.80;;;24.40;52.70;;;;;;4233869;28;20055;-58
2021/08/21 07:33:30;;;;;;;12.20;9.32;;;24.30;52.00;;;;;;4233492;28;20044;-58
2021/08/21 07:35:32;;;;;;;16.13;10.70;;;24.40;51.70;;;;;;4234022;28;20044;-58
2021/08/21 07:37:36;;;;;;;12.88;9.50;;;24.40;52.20;;;;;;4233863;28;20048;-58
2021/08/21 07:39:38;;;;;;;42.45;34.10;;;24.40;52.20;;;;;;4234304;28;20052;-58
2021/08/21 07:41:40;;;;;;;31.25;26.52;;;24.50;52.00;;;;;;4233688;28;20050;-59
2021/08/21 07:43:41;;;;;;;32.40;26.63;;;24.50;52.00;;;;;;4233657;28;20055;-60
2021/08/21 07:45:46;;;;;;;27.98;21.05;;;24.50;51.70;;;;;;4234403;28;20052;-58
2021/08/21 07:47:50;;;;;;;25.92;21.83;;;24.60;51.80;;;;;;4234611;28;20501;-58
2021/08/21 07:49:52;;;;;;;26.42;21.58;;;24.60;52.40;;;;;;4234607;28;20052;-59
2021/08/21 07:51:54;;;;;;;27.48;20.90;;;24.60;52.00;;;;;;4234701;28;20073;-59
2021/08/21 07:53:56;;;;;;;19.55;12.38;;;24.60;52.20;;;;;;4216869;28;20052;-58
2021/08/21 07:55:58;;;;;;;28.55;18.30;;;24.60;50.70;;;;;;4234613;28;20048;-58
2021/08/21 07:58:00;;;;;;;17.00;13.88;;;24.50;51.90;;;;;;4234561;28;20044;-58
2021/08/21 08:00:03;;;;;;;18.67;14.77;;;24.60;51.50;;;;;;4234360;28;20048;-58
2021/08/21 08:02:06;;;;;;;17.85;13.77;;;24.70;51.60;;;;;;4216796;28;20044;-58
2021/08/21 08:04:08;;;;;;;11.50;9.25;;;24.70;52.00;;;;;;4234217;28;20115;-58
2021/08/21 08:06:10;;;;;;;13.95;11.45;;;24.70;50.70;;;;;;4234403;28;20044;-58
2021/08/21 08:08:12;;;;;;;12.63;10.77;;;24.60;51.40;;;;;;4234270;28;20046;-61
2021/08/21 08:10:14;;;;;;;16.30;11.32;;;24.70;51.50;;;;;;4234016;28;20044;-57
2021/08/21 08:12:16;;;;;;;14.23;10.82;;;24.70;51.70;;;;;;4234129;28;20063;-58
2021/08/21 08:14:18;;;;;;;25.95;14.73;;;24.70;51.80;;;;;;4234050;28;20112;-57
2021/08/21 08:16:20;;;;;;;53.78;22.38;;;24.70;52.20;;;;;;4234073;28;20048;-61
2021/08/21 08:18:22;;;;;;;49.63;23.73;;;24.80;52.20;;;;;;4234050;28;20092;-57
2021/08/21 08:20:26;;;;;;;120.85;50.10;;;24.80;52.10;;;;;;4233991;28;20048;-58
2021/08/21 08:22:28;;;;;;;119.07;45.83;;;24.80;51.50;;;;;;4234106;28;20052;-57
2021/08/21 08:24:30;;;;;;;86.68;35.47;;;24.80;52.20;;;;;;4234027;28;20078;-58
2021/08/21 08:26:32;;;;;;;92.68;38.13;;;24.70;51.10;;;;;;4233828;28;20044;-57
2021/08/21 08:28:34;;;;;;;91.57;37.80;;;24.80;51.30;;;;;;4234114;28;20099;-57
2021/08/21 08:30:36;;;;;;;217.25;79.65;;;24.70;50.50;;;;;;4233934;28;20044;-58
2021/08/21 08:32:39;;;;;;;194.27;75.55;;;24.70;49.20;;;;;;4233737;28;20048;-58
2021/08/21 08:34:41;;;;;;;174.43;67.75;;;24.70;50.80;;;;;;4233685;28;20136;-58
2021/08/21 08:36:43;;;;;;;273.75;101.82;;;24.70;51.20;;;;;;4233708;28;20052;-58
2021/08/21 08:38:45;;;;;;;229.95;85.63;;;24.80;51.40;;;;;;4233714;28;20069;-57
2021/08/21 08:40:48;;;;;;;210.50;80.72;;;24.80;50.50;;;;;;4233705;28;20052;-58
2021/08/21 08:42:50;;;;;;;164.60;59.97;;;24.70;50.30;;;;;;4233737;28;20103;-58
2021/08/21 08:44:52;;;;;;;203.48;78.35;;;24.70;50.00;;;;;;4233590;28;20048;-58
2021/08/21 08:46:55;;;;;;;179.43;69.75;;;24.80;50.90;;;;;;4233466;28;20044;-59
2021/08/21 08:49:02;;;;;;;130.98;51.42;;;24.70;50.50;;;;;;4232761;28;20108;-57
2021/08/21 08:51:04;;;;;;;120.75;46.13;;;24.70;49.80;;;;;;4233645;28;20044;-58
2021/08/21 08:53:07;;;;;;;118.20;47.88;;;24.70;49.30;;;;;;4233569;28;20100;-58
2021/08/21 08:55:10;;;;;;;104.65;41.10;;;24.70;49.80;;;;;;4233504;28;20056;-58
2021/08/21 08:57:35;;;;;;;73.45;27.17;;;24.80;49.80;;;;;;4233467;28;20050;-59
2021/08/21 08:59:37;;;;;;;71.35;28.67;;;24.70;48.30;;;;;;4233387;28;20058;-58
2021/08/21 09:01:40;;;;;;;69.32;28.35;;;24.70;49.10;;;;;;4233346;28;20505;-58
2021/08/21 09:03:42;;;;;;;51.55;18.83;;;24.70;49.30;;;;;;4232669;28;20056;-57
2021/08/21 09:05:45;;;;;;;39.67;15.80;;;24.70;48.40;;;;;;4232709;28;20044;-58
2021/08/21 09:07:55;;;;;;;60.08;25.10;;;24.80;48.30;;;;;;4232682;28;20047;-58
2021/08/21 09:10:34;;;;;;;71.22;30.02;;;24.80;48.70;;;;;;4232664;28;20060;-59
2021/08/21 09:12:36;;;;;;;81.88;31.52;;;24.80;48.00;;;;;;4164598;28;20042;-58
2021/08/21 09:14:38;;;;;;;154.23;57.08;;;24.80;49.70;;;;;;4202607;28;20044;-58
2021/08/21 09:16:40;;;;;;;163.32;65.00;;;24.90;48.80;;;;;;4232620;28;20048;-58
2021/08/21 09:18:46;;;;;;;144.07;58.55;;;24.90;48.70;;;;;;4232305;28;20054;-58
2021/08/21 09:20:48;;;;;;;133.90;50.20;;;24.80;49.00;;;;;;4232181;28;20047;-54
2021/08/21 09:22:50;;;;;;;123.07;47.90;;;24.90;48.40;;;;;;4232925;28;20051;-56
2021/08/21 09:24:52;;;;;;;118.32;45.30;;;24.90;48.70;;;;;;4232993;28;20051;-55
2021/08/21 09:26:54;;;;;;;129.95;39.65;;;24.90;49.60;;;;;;4232936;28;20052;-54
2021/08/21 09:28:58;;;;;;;107.15;36.65;;;24.90;49.40;;;;;;4232583;28;20466;-55
2021/08/21 09:31:07;;;;;;;98.85;35.85;;;24.90;50.00;;;;;;4232934;28;20044;-54
2021/08/21 09:33:09;;;;;;;95.15;32.38;;;24.90;50.40;;;;;;4232948;28;20048;-50
2021/08/21 09:35:13;;;;;;;87.18;33.28;;;24.90;50.20;;;;;;4232246;28;20050;-56
2021/08/21 09:37:18;;;;;;;85.05;34.08;;;24.90;50.60;;;;;;4231400;28;20050;-59
2021/08/21 09:39:48;;;;;;;58.85;22.50;;;24.90;50.40;;;;;;4231407;28;20073;-59
2021/08/21 09:42:01;;;;;;;74.57;27.25;;;24.90;51.30;;;;;;4231469;28;20043;-58
2021/08/21 09:44:08;;;;;;;47.22;15.63;;;24.90;51.10;;;;;;4231448;28;20056;-59
2021/08/21 09:46:16;;;;;;;66.95;24.23;;;24.90;53.40;;;;;;4231415;28;20051;-59
2021/08/21 09:48:18;;;;;;;62.25;23.88;;;24.90;51.80;;;;;;4231280;28;20103;-58
2021/08/21 09:50:20;;;;;;;54.25;21.42;;;24.90;51.50;;;;;;4231443;28;20073;-59
2021/08/21 09:52:22;;;;;;;56.78;17.55;;;25.00;51.70;;;;;;4232038;28;20052;-51
2021/08/21 09:54:24;;;;;;;60.65;18.35;;;24.90;52.00;;;;;;4232537;28;20044;-49
2021/08/21 09:56:34;;;;;;;52.67;19.50;;;24.90;52.60;;;;;;4232499;28;20044;-48
2021/08/21 09:58:36;;;;;;;36.38;16.05;;;24.90;52.50;;;;;;4232773;28;20052;-45
2021/08/21 10:00:38;;;;;;;41.47;17.50;;;24.90;52.80;;;;;;4232476;28;20056;-56
2021/08/21 10:02:44;;;;;;;56.90;19.52;;;24.90;52.40;;;;;;4232601;28;20099;-53
2021/08/21 10:04:46;;;;;;;55.88;20.15;;;24.90;53.30;;;;;;4232219;28;20056;-55
2021/08/21 10:06:48;;;;;;;46.67;19.42;;;24.90;53.30;;;;;;4232300;28;20051;-56
2021/08/21 10:39:15;;;;;;;29.13;10.95;;;24.90;55.10;;;;;;4246403;27;20389;-57
2021/08/21 10:41:23;;;;;;;35.13;9.70;;;25.20;54.50;;;;;;4246518;28;20048;-56
2021/08/21 10:43:50;;;;;;;26.23;8.30;;;25.20;54.70;;;;;;4246368;28;20044;-54
2021/08/21 10:45:52;;;;;;;23.02;8.88;;;25.20;55.30;;;;;;4246377;28;20409;-52
2021/08/21 10:47:54;;;;;;;17.98;6.47;;;25.30;55.00;;;;;;4234588;28;20041;-59
2021/08/21 10:50:16;;;;;;;9.82;5.15;;;25.30;55.00;;;;;;4235230;28;20089;-55
2021/08/21 10:52:45;;;;;;;6.18;3.78;;;25.30;54.90;;;;;;4229446;28;20055;-56
2021/08/21 10:54:47;;;;;;;7.25;3.70;;;25.30;54.60;;;;;;4242482;28;20044;-56
2021/08/21 10:56:49;;;;;;;6.50;2.95;;;25.30;54.60;;;;;;4238872;28;20063;-53
2021/08/21 10:58:55;;;;;;;16.10;6.10;;;25.30;54.50;;;;;;4245545;28;20050;-52